Time;durP1;ratioP1;P1;durP2;ratioP2;P2;SDS_P1;SDS_P2;PMS_P1;PMS_P2;Temp;Humidity;BMP_temperature;BMP_pressure;BME280_temperature;BME280_humidity;BME280_pressure;Samples;Min_cycle;Max_cycle;Signal;HPM_P1;HPM_P2
2021/11/12 00:12:47;;;;;;;13.30;9.93;;;24.00;40.30;;;;;;1850735;77;21127;-36
2021/11/12 00:15:16;;;;;;;11.25;9.43;;;24.00;40.40;;;;;;1850837;77;21218;-36
2021/11/12 00:17:45;;;;;;;14.47;9.65;;;24.00;40.40;;;;;;1850924;77;21515;-37
2021/11/12 00:20:12;;;;;;;12.28;9.08;;;24.00;40.30;;;;;;1850516;77;21099;-37
2021/11/12 00:22:39;;;;;;;13.30;8.83;;;24.10;40.30;;;;;;1850907;77;21547;-37
2021/11/12 00:25:08;;;;;;;12.18;8.83;;;24.10;40.20;;;;;;1850802;77;21048;-37
2021/11/12 00:27:36;;;;;;;11.97;8.10;;;24.10;40.20;;;;;;1850802;76;21095;-37
2021/11/12 00:33:00;;;;;;;11.73;9.23;;;24.10;40.00;;;;;;1850909;77;21070;-37
2021/11/12 00:37:58;;;;;;;11.97;9.38;;;24.10;39.90;;;;;;1850783;77;21100;-37
2021/11/12 00:40:36;;;;;;;11.08;8.55;;;24.10;39.90;;;;;;1850035;77;21181;-37
2021/11/12 00:45:32;;;;;;;12.93;8.25;;;24.10;40.00;;;;;;1847488;78;21136;-37
2021/11/12 00:48:24;;;;;;;11.30;7.87;;;24.00;39.90;;;;;;1847523;78;21683;-37
2021/11/12 00:50:51;;;;;;;10.13;7.58;;;24.10;39.90;;;;;;1839101;78;21125;-39
2021/11/12 00:55:30;;;;;;;13.72;9.23;;;24.10;39.90;;;;;;1847452;78;21104;-36
2021/11/12 00:57:58;;;;;;;13.72;8.13;;;24.10;39.90;;;;;;1847626;78;21488;-37
2021/11/12 01:00:26;;;;;;;11.03;8.83;;;24.10;39.80;;;;;;1847523;78;21105;-37
2021/11/12 01:02:54;;;;;;;10.80;8.45;;;24.10;39.80;;;;;;1847577;78;21068;-37
2021/11/12 01:05:22;;;;;;;11.45;8.80;;;24.10;39.80;;;;;;1847597;78;21096;-36
2021/11/12 01:07:49;;;;;;;11.97;8.80;;;24.10;39.70;;;;;;1847665;78;21543;-36
2021/11/12 01:10:18;;;;;;;11.60;9.00;;;24.10;39.70;;;;;;1847667;78;21465;-37
2021/11/12 01:12:46;;;;;;;10.82;8.83;;;24.10;39.70;;;;;;1847706;78;21449;-38
2021/11/12 01:15:15;;;;;;;10.50;8.30;;;24.10;39.60;;;;;;1847773;78;21489;-37
2021/11/12 01:17:43;;;;;;;10.93;8.23;;;24.10;39.60;;;;;;1847600;78;21568;-37
2021/11/12 01:20:12;;;;;;;10.72;8.28;;;24.10;39.60;;;;;;1847688;78;21564;-37
2021/11/12 01:22:40;;;;;;;11.50;8.43;;;24.10;39.60;;;;;;1847536;78;21606;-37
2021/11/12 01:25:10;;;;;;;10.13;8.08;;;24.10;40.10;;;;;;1847553;78;21097;-36
2021/11/12 01:27:42;;;;;;;9.53;8.23;;;24.10;39.50;;;;;;1847488;76;21565;-36
2021/11/12 01:30:11;;;;;;;11.90;8.63;;;24.10;39.50;;;;;;1847539;78;21547;-37
2021/11/12 01:32:39;;;;;;;9.53;7.75;;;24.10;39.50;;;;;;1847538;78;21056;-37
2021/11/12 01:35:08;;;;;;;11.10;8.75;;;24.10;39.60;;;;;;1847572;78;21175;-36
2021/11/12 01:37:36;;;;;;;11.63;8.40;;;24.10;39.60;;;;;;1847622;78;21533;-36
2021/11/12 01:40:10;;;;;;;13.03;8.25;;;24.10;39.60;;;;;;1847522;78;21553;-37
2021/11/12 01:43:24;;;;;;;11.15;8.13;;;24.10;39.60;;;;;;1847240;77;21141;-37
2021/11/12 01:51:29;;;;;;;12.20;7.33;;;24.00;39.90;;;;;;1847555;78;21067;-37
2021/11/12 01:54:08;;;;;;;8.75;7.17;;;24.00;39.80;;;;;;1846703;75;21147;-37
2021/11/12 01:59:15;;;;;;;9.28;6.70;;;24.00;39.80;;;;;;1847576;78;21187;-37
2021/11/12 02:01:23;;;;;;;10.37;7.43;;;24.00;39.70;;;;;;1839487;78;21583;-37
2021/11/12 02:03:51;;;;;;;9.05;7.28;;;24.00;39.60;;;;;;1847510;78;21097;-37
2021/11/12 02:06:21;;;;;;;9.20;7.92;;;24.00;39.60;;;;;;1847536;78;21472;-37
2021/11/12 02:08:49;;;;;;;10.20;7.10;;;24.10;39.60;;;;;;1846991;78;21531;-38
2021/11/12 02:11:17;;;;;;;11.75;9.15;;;24.10;39.60;;;;;;1847537;78;21529;-38
2021/11/12 02:13:45;;;;;;;10.98;9.10;;;24.10;39.50;;;;;;1847515;78;21100;-37
2021/11/12 02:16:17;;;;;;;11.95;9.88;;;24.10;39.50;;;;;;1847541;78;21537;-37
2021/11/12 02:18:44;;;;;;;10.98;9.30;;;24.10;39.30;;;;;;1846986;78;21599;-38
2021/11/12 02:21:27;;;;;;;11.28;9.28;;;24.10;39.30;;;;;;1847364;78;21117;-37
2021/11/12 02:24:08;;;;;;;11.68;9.28;;;24.10;39.30;;;;;;1846396;78;21139;-37
2021/11/12 02:26:38;;;;;;;11.48;8.95;;;24.00;39.30;;;;;;1847085;78;21166;-37
2021/11/12 02:29:06;;;;;;;12.80;8.50;;;24.00;39.40;;;;;;1846919;76;21568;-37
2021/11/12 02:31:33;;;;;;;12.28;8.13;;;24.00;39.50;;;;;;1847274;78;21536;-37
2021/11/12 02:34:09;;;;;;;12.43;8.25;;;24.00;39.50;;;;;;1847553;78;21642;-37
2021/11/12 02:36:37;;;;;;;12.78;8.15;;;24.00;39.50;;;;;;1847786;78;21134;-37
2021/11/12 02:39:07;;;;;;;9.63;7.60;;;24.00;39.20;;;;;;1847770;78;21083;-37
2021/11/12 02:41:35;;;;;;;9.73;7.70;;;24.00;39.40;;;;;;1847774;77;21537;-37
2021/11/12 02:44:03;;;;;;;10.32;8.38;;;24.10;39.50;;;;;;1847700;76;21177;-37
2021/11/12 02:46:30;;;;;;;11.50;8.60;;;24.10;39.50;;;;;;1847831;78;21585;-37
2021/11/12 02:48:58;;;;;;;13.22;9.70;;;24.10;39.50;;;;;;1847664;78;21117;-37
2021/11/12 02:51:29;;;;;;;11.57;8.33;;;24.10;39.40;;;;;;1847661;78;21103;-37
2021/11/12 02:53:58;;;;;;;11.08;8.88;;;24.10;39.40;;;;;;1847810;78;21524;-37
2021/11/12 02:56:30;;;;;;;11.85;8.78;;;24.10;39.40;;;;;;1847674;78;21036;-37
2021/11/12 02:59:10;;;;;;;10.40;9.05;;;24.10;39.40;;;;;;1847746;78;21070;-37
2021/11/12 03:01:40;;;;;;;10.90;8.60;;;24.10;39.40;;;;;;1847180;78;21114;-38
2021/11/12 03:04:08;;;;;;;12.28;9.90;;;24.00;39.40;;;;;;1847625;78;21586;-37
2021/11/12 03:06:36;;;;;;;12.20;8.95;;;24.00;39.30;;;;;;1847727;78;21071;-37
2021/11/12 03:09:06;;;;;;;10.68;8.90;;;24.10;39.40;;;;;;1847552;78;21544;-37
2021/11/12 03:11:35;;;;;;;11.40;8.55;;;24.10;39.40;;;;;;1847650;78;21073;-37
2021/11/12 03:14:03;;;;;;;11.97;8.35;;;24.00;39.30;;;;;;1847723;77;21516;-37
2021/11/12 03:16:31;;;;;;;10.72;7.85;;;24.00;39.40;;;;;;1847675;78;21548;-37
2021/11/12 03:19:00;;;;;;;10.82;8.28;;;24.10;39.40;;;;;;1847682;78;21052;-37
2021/11/12 03:21:28;;;;;;;13.70;9.78;;;24.00;39.30;;;;;;1847608;78;21508;-38
2021/11/12 03:24:01;;;;;;;11.60;9.45;;;24.00;39.30;;;;;;1847843;78;21493;-37
2021/11/12 03:26:43;;;;;;;11.95;9.08;;;24.10;39.30;;;;;;1846966;78;21109;-37
2021/11/12 03:29:28;;;;;;;16.73;10.00;;;24.10;39.30;;;;;;1846783;76;21619;-37
2021/11/12 03:56:48;;;;;;;10.13;8.08;;;23.90;39.60;;;;;;1847612;78;21141;-37
2021/11/12 04:02:03;;;;;;;11.10;9.60;;;23.90;40.10;;;;;;1847556;78;21072;-37
2021/11/12 04:07:29;;;;;;;11.00;7.97;;;23.90;39.60;;;;;;1847692;78;21142;-37
2021/11/12 04:20:59;;;;;;;10.45;7.72;;;23.90;39.50;;;;;;1847493;78;21097;-37
2021/11/12 05:09:58;;;;;;;9.95;8.05;;;23.90;39.40;;;;;;1780229;80;21177;-38
2021/11/12 05:26:20;;;;;;;12.75;8.38;;;23.90;39.00;;;;;;1850486;77;21532;-44
2021/11/12 05:55:19;;;;;;;13.00;9.35;;;23.70;39.10;;;;;;1849919;77;21076;-42
2021/11/12 05:57:47;;;;;;;10.45;9.10;;;23.80;39.00;;;;;;1849949;77;21523;-40
2021/11/12 06:00:16;;;;;;;10.93;7.85;;;23.80;38.80;;;;;;1849959;77;21540;-43
2021/11/12 06:02:43;;;;;;;11.40;8.20;;;23.90;38.80;;;;;;1849894;77;21075;-45
2021/11/12 06:05:11;;;;;;;12.00;8.53;;;23.90;38.80;;;;;;1849958;77;21649;-45
2021/11/12 06:07:39;;;;;;;12.53;8.35;;;23.90;38.70;;;;;;1849984;77;21523;-45
2021/11/12 06:10:07;;;;;;;11.95;8.75;;;24.00;38.60;;;;;;1849948;77;21473;-43
2021/11/12 06:12:36;;;;;;;11.53;8.38;;;24.00;38.50;;;;;;1850099;77;21071;-41
2021/11/12 06:15:04;;;;;;;13.05;8.58;;;24.00;38.60;;;;;;1850101;77;21524;-45
2021/11/12 06:17:32;;;;;;;12.93;8.20;;;24.00;38.60;;;;;;1850035;77;21075;-43
2021/11/12 06:20:00;;;;;;;9.33;7.60;;;24.00;38.60;;;;;;1850114;77;21481;-45
2021/11/12 06:22:29;;;;;;;12.88;8.00;;;24.00;38.60;;;;;;1850158;77;21593;-39
2021/11/12 06:24:56;;;;;;;13.70;8.23;;;24.00;38.50;;;;;;1850072;77;21087;-37
2021/11/12 06:27:24;;;;;;;14.85;8.25;;;24.10;39.30;;;;;;1850089;76;21508;-38
2021/11/12 06:29:53;;;;;;;9.73;7.83;;;24.00;38.40;;;;;;1849949;77;21094;-44
2021/11/12 06:32:20;;;;;;;11.75;6.80;;;24.10;38.40;;;;;;1850109;77;21185;-37
2021/11/12 06:34:48;;;;;;;9.13;7.17;;;24.10;38.40;;;;;;1850211;77;21527;-37
2021/11/12 06:37:16;;;;;;;10.53;6.62;;;24.00;38.30;;;;;;1850021;77;21075;-37
2021/11/12 06:39:44;;;;;;;12.40;7.78;;;24.10;38.30;;;;;;1850028;77;21461;-37
2021/11/12 06:42:17;;;;;;;13.13;7.00;;;24.00;37.90;;;;;;1849988;77;21523;-36
2021/11/12 06:50:08;;;;;;;11.03;7.05;;;24.10;38.20;;;;;;1850129;77;21528;-37
2021/11/12 06:52:29;;;;;;;11.43;7.50;;;24.00;38.00;;;;;;1846945;77;21169;-36
2021/11/12 06:55:00;;;;;;;9.83;6.65;;;24.00;38.10;;;;;;1850261;77;21611;-36
2021/11/12 06:57:25;;;;;;;11.85;8.25;;;24.00;38.00;;;;;;1849524;77;21119;-37
2021/11/12 06:59:53;;;;;;;10.75;7.58;;;24.00;37.60;;;;;;1850113;77;21534;-45
2021/11/12 07:02:22;;;;;;;11.08;7.00;;;24.00;37.70;;;;;;1850136;77;21094;-38
2021/11/12 07:04:51;;;;;;;7.53;6.08;;;24.00;37.60;;;;;;1850254;77;21052;-48
2021/11/12 07:07:19;;;;;;;9.35;7.05;;;24.00;37.70;;;;;;1850024;77;21506;-45
2021/11/12 07:09:47;;;;;;;8.48;7.12;;;24.10;37.70;;;;;;1850228;77;21056;-42
2021/11/12 07:12:15;;;;;;;9.28;6.70;;;24.00;37.40;;;;;;1850166;77;21159;-37
2021/11/12 07:14:44;;;;;;;8.78;6.50;;;24.10;37.70;;;;;;1850232;77;21484;-38
2021/11/12 07:17:13;;;;;;;10.05;6.50;;;24.00;37.60;;;;;;1850299;77;21108;-41
2021/11/12 07:19:40;;;;;;;7.85;6.12;;;24.00;37.40;;;;;;1850183;77;21059;-42
2021/11/12 07:22:08;;;;;;;14.75;7.08;;;24.00;37.30;;;;;;1850176;77;21184;-41
2021/11/12 07:24:35;;;;;;;7.45;5.97;;;24.00;37.30;;;;;;1850099;77;21564;-42
2021/11/12 07:27:03;;;;;;;9.53;6.20;;;24.00;37.20;;;;;;1850035;76;21515;-43
2021/11/12 07:29:31;;;;;;;8.58;6.58;;;24.00;37.20;;;;;;1850102;77;21591;-38
2021/11/12 07:31:59;;;;;;;8.93;5.62;;;24.10;37.00;;;;;;1850087;77;21586;-37
2021/11/12 07:34:28;;;;;;;10.78;5.47;;;24.00;37.70;;;;;;1850211;77;21576;-37
2021/11/12 07:37:02;;;;;;;7.15;5.40;;;24.00;37.10;;;;;;1850344;77;21543;-36
2021/11/12 07:39:38;;;;;;;6.00;4.95;;;24.00;37.10;;;;;;1849179;77;21556;-36
2021/11/12 07:44:42;;;;;;;10.40;5.20;;;24.00;37.10;;;;;;1850120;77;21107;-36
2021/11/12 07:47:15;;;;;;;8.15;5.25;;;24.00;37.20;;;;;;1849662;77;21139;-36
2021/11/12 07:49:44;;;;;;;12.80;5.40;;;24.00;37.20;;;;;;1850073;77;21128;-38
2021/11/12 07:52:12;;;;;;;11.73;5.42;;;24.00;37.20;;;;;;1850282;77;21192;-45
2021/11/12 07:54:40;;;;;;;7.90;5.60;;;24.00;37.10;;;;;;1850224;77;21520;-34
2021/11/12 07:57:09;;;;;;;10.32;5.30;;;24.00;37.00;;;;;;1850150;77;21157;-35
2021/11/12 07:59:38;;;;;;;8.05;5.30;;;24.10;36.90;;;;;;1849018;76;21536;-35
2021/11/12 08:02:06;;;;;;;6.28;4.60;;;24.10;36.90;;;;;;1850205;77;21505;-35
2021/11/12 08:04:36;;;;;;;7.90;4.95;;;24.00;36.90;;;;;;1850271;77;21075;-35
2021/11/12 08:07:04;;;;;;;7.85;4.62;;;24.10;36.80;;;;;;1850208;77;21044;-35
2021/11/12 08:09:36;;;;;;;7.75;5.50;;;24.10;36.60;;;;;;1850232;77;21088;-35
2021/11/12 08:12:10;;;;;;;8.50;5.78;;;24.00;36.50;;;;;;1849394;77;21216;-35
2021/11/12 08:14:40;;;;;;;6.80;4.87;;;24.00;36.20;;;;;;1849688;77;21097;-35
2021/11/12 08:17:14;;;;;;;8.00;5.10;;;24.00;36.40;;;;;;1849490;77;21108;-35
2021/11/12 08:22:56;;;;;;;9.15;4.87;;;24.00;36.50;;;;;;1850186;77;21212;-35
2021/11/12 08:25:15;;;;;;;7.78;5.22;;;24.00;36.50;;;;;;1840561;77;21535;-35
2021/11/12 08:32:47;;;;;;;6.58;4.75;;;23.90;36.50;;;;;;1850022;77;21529;-35
2021/11/12 08:40:47;;;;;;;8.85;4.65;;;23.90;36.50;;;;;;1850107;77;21124;-35
2021/11/12 08:43:18;;;;;;;7.17;4.30;;;23.90;36.50;;;;;;1847525;77;21185;-35
2021/11/12 08:45:56;;;;;;;8.35;4.62;;;23.90;36.50;;;;;;1848331;77;21136;-35
2021/11/12 08:48:19;;;;;;;7.15;4.22;;;23.90;36.60;;;;;;1844942;78;21104;-35
2021/11/12 08:50:42;;;;;;;9.33;5.05;;;23.90;36.50;;;;;;1845629;78;21163;-35
2021/11/12 08:53:12;;;;;;;9.03;5.45;;;23.90;36.30;;;;;;1847507;78;21134;-35
2021/11/12 08:55:39;;;;;;;8.93;4.70;;;23.90;36.30;;;;;;1847129;78;21573;-35
2021/11/12 08:58:07;;;;;;;10.85;5.53;;;24.00;36.20;;;;;;1847696;78;21450;-35
2021/11/12 09:00:36;;;;;;;10.98;5.50;;;24.00;36.20;;;;;;1847444;78;21064;-36
2021/11/12 09:03:04;;;;;;;7.80;4.55;;;24.00;36.30;;;;;;1847540;78;21581;-35
2021/11/12 09:05:32;;;;;;;6.42;4.90;;;24.00;36.30;;;;;;1847594;78;21531;-35
2021/11/12 09:07:59;;;;;;;7.83;5.08;;;24.00;36.40;;;;;;1847472;78;21571;-45
2021/11/12 09:10:27;;;;;;;7.42;5.25;;;24.00;36.50;;;;;;1847473;77;21481;-40
2021/11/12 09:13:32;;;;;;;6.80;5.42;;;24.00;36.50;;;;;;1847516;78;21568;-35
2021/11/12 09:15:32;;;;;;;8.03;5.33;;;24.00;36.50;;;;;;1835849;78;21178;-36
2021/11/12 09:18:01;;;;;;;7.95;6.08;;;24.00;36.40;;;;;;1847348;78;21112;-36
2021/11/12 09:20:29;;;;;;;9.13;6.65;;;24.00;36.40;;;;;;1847473;78;21108;-36
2021/11/12 09:22:57;;;;;;;11.38;7.10;;;24.00;36.20;;;;;;1847514;78;21567;-36
2021/11/12 09:25:25;;;;;;;10.75;6.80;;;24.00;36.20;;;;;;1847522;78;21501;-36
2021/11/12 09:27:53;;;;;;;12.18;6.40;;;24.00;36.20;;;;;;1847454;76;21127;-48
2021/11/12 09:30:23;;;;;;;9.88;6.87;;;24.00;36.30;;;;;;1847359;78;21240;-36
2021/11/12 09:32:55;;;;;;;8.13;5.92;;;24.00;36.20;;;;;;1847529;78;21095;-38
2021/11/12 09:35:22;;;;;;;10.03;5.75;;;24.00;36.20;;;;;;1847611;78;21177;-44
2021/11/12 09:37:50;;;;;;;10.08;6.50;;;24.00;36.30;;;;;;1847469;78;21170;-37
2021/11/12 09:40:20;;;;;;;7.67;5.78;;;24.00;36.20;;;;;;1847493;78;21553;-37
2021/11/12 09:42:47;;;;;;;7.58;5.45;;;24.00;36.40;;;;;;1847421;78;21607;-35
2021/11/12 09:45:16;;;;;;;7.15;5.10;;;24.00;36.50;;;;;;1847597;77;21056;-36
2021/11/12 09:47:44;;;;;;;8.90;5.72;;;24.10;36.40;;;;;;1847646;78;21067;-36
2021/11/12 09:50:16;;;;;;;10.53;6.00;;;24.00;36.40;;;;;;1847690;78;21630;-36
2021/11/12 09:52:43;;;;;;;7.87;5.72;;;24.00;36.20;;;;;;1848008;78;21158;-36
2021/11/12 09:55:12;;;;;;;7.72;6.00;;;24.00;36.30;;;;;;1847601;78;21141;-36
2021/11/12 09:57:41;;;;;;;7.80;5.92;;;24.00;36.30;;;;;;1847600;78;21083;-40
2021/11/12 10:00:11;;;;;;;8.60;5.72;;;24.00;36.20;;;;;;1847668;78;21087;-38
2021/11/12 10:02:42;;;;;;;13.95;6.20;;;24.10;36.30;;;;;;1847522;78;21488;-39
2021/11/12 10:05:11;;;;;;;12.20;5.45;;;24.00;36.20;;;;;;1847599;78;21145;-38
2021/11/12 10:07:39;;;;;;;11.70;5.42;;;24.10;36.30;;;;;;1847703;78;21512;-38
2021/11/12 10:10:11;;;;;;;8.03;4.85;;;24.10;36.40;;;;;;1847670;78;21484;-39
2021/11/12 10:12:45;;;;;;;11.95;5.03;;;24.10;36.30;;;;;;1847556;78;21192;-38
2021/11/12 10:15:18;;;;;;;9.73;5.00;;;24.10;36.30;;;;;;1847611;78;21083;-38
2021/11/12 10:17:47;;;;;;;6.75;4.95;;;24.00;36.20;;;;;;1847536;78;21178;-38
2021/11/12 10:20:17;;;;;;;9.38;5.37;;;24.00;36.20;;;;;;1847601;78;21052;-38
2021/11/12 10:22:46;;;;;;;12.37;5.90;;;24.00;36.20;;;;;;1847508;78;21114;-38
2021/11/12 10:25:14;;;;;;;10.08;5.30;;;24.00;36.10;;;;;;1846977;78;21083;-38
2021/11/12 10:27:50;;;;;;;8.03;5.55;;;24.00;36.10;;;;;;1847515;76;21119;-38
2021/11/12 10:30:14;;;;;;;9.45;5.50;;;24.10;36.20;;;;;;1845445;78;21720;-40
2021/11/12 10:32:43;;;;;;;7.55;5.15;;;24.10;36.20;;;;;;1847470;78;21114;-39
2021/11/12 10:35:22;;;;;;;6.47;4.78;;;24.10;36.40;;;;;;1847529;78;21122;-39
2021/11/12 10:37:51;;;;;;;6.58;4.87;;;24.10;36.40;;;;;;1847493;78;21121;-40
2021/11/12 10:40:28;;;;;;;9.58;5.20;;;24.00;36.40;;;;;;1847578;78;21512;-48
2021/11/12 10:42:58;;;;;;;11.78;4.62;;;24.10;36.60;;;;;;1847686;78;21139;-38
2021/11/12 10:45:27;;;;;;;7.10;4.45;;;24.00;36.70;;;;;;1847503;78;21484;-37
2021/11/12 10:47:59;;;;;;;6.60;5.37;;;24.10;36.70;;;;;;1847554;77;21096;-38
2021/11/12 10:50:29;;;;;;;6.62;5.28;;;24.10;36.40;;;;;;1847566;78;21059;-37
2021/11/12 10:53:08;;;;;;;7.87;5.67;;;24.10;36.40;;;;;;1847498;78;21099;-37
2021/11/12 10:55:36;;;;;;;11.22;5.17;;;24.10;36.20;;;;;;1847046;78;21145;-37
2021/11/12 10:58:11;;;;;;;10.78;5.72;;;24.10;36.20;;;;;;1847506;78;21179;-37
2021/11/12 11:00:44;;;;;;;8.15;5.78;;;24.10;36.30;;;;;;1847503;78;21177;-36
2021/11/12 11:03:11;;;;;;;12.65;5.10;;;24.10;36.30;;;;;;1847130;78;21496;-36
2021/11/12 11:05:58;;;;;;;9.25;6.35;;;24.10;36.50;;;;;;1847509;78;21055;-36
2021/11/12 11:08:32;;;;;;;8.95;5.53;;;24.10;36.40;;;;;;1847434;77;21221;-37
2021/11/12 11:11:05;;;;;;;9.18;5.78;;;24.10;36.90;;;;;;1847557;78;21121;-38
2021/11/12 11:13:32;;;;;;;10.55;5.97;;;24.10;36.30;;;;;;1846458;78;21119;-37
2021/11/12 11:16:02;;;;;;;9.68;6.97;;;24.10;36.20;;;;;;1846841;78;21524;-37
2021/11/12 11:18:43;;;;;;;9.38;6.70;;;24.10;36.50;;;;;;1847499;78;21131;-37
2021/11/12 11:21:24;;;;;;;10.53;6.87;;;24.10;36.20;;;;;;1846595;78;21109;-36
2021/11/12 11:23:59;;;;;;;10.85;6.53;;;24.10;36.20;;;;;;1845535;78;21132;-35
2021/11/12 11:26:31;;;;;;;9.48;7.28;;;24.10;36.00;;;;;;1847359;78;21135;-42
2021/11/12 11:29:01;;;;;;;9.90;6.87;;;24.10;35.80;;;;;;1847426;76;21143;-35
2021/11/12 11:31:30;;;;;;;9.88;6.50;;;24.10;36.00;;;;;;1847393;78;21520;-35
2021/11/12 11:33:58;;;;;;;10.60;6.08;;;24.10;36.10;;;;;;1846654;78;21525;-40
2021/11/12 11:36:27;;;;;;;8.58;6.08;;;24.10;36.10;;;;;;1847513;78;21594;-42
2021/11/12 11:38:56;;;;;;;10.58;6.37;;;24.10;36.00;;;;;;1847373;78;21489;-39
2021/11/12 11:41:26;;;;;;;8.35;6.55;;;24.10;36.00;;;;;;1847269;78;21098;-39
2021/11/12 11:43:55;;;;;;;11.50;8.50;;;24.10;35.90;;;;;;1847364;78;21115;-38
2021/11/12 11:46:24;;;;;;;9.55;6.65;;;24.20;35.70;;;;;;1846715;77;21098;-37
2021/11/12 11:48:53;;;;;;;9.08;7.17;;;24.20;35.90;;;;;;1847465;78;21072;-37
2021/11/12 11:51:30;;;;;;;10.43;6.70;;;24.10;35.80;;;;;;1847425;78;21174;-43
2021/11/12 11:54:06;;;;;;;8.80;7.03;;;24.20;36.00;;;;;;1847315;78;21113;-51
2021/11/12 11:56:38;;;;;;;10.30;7.78;;;24.20;35.80;;;;;;1847410;78;21060;-48
2021/11/12 11:59:20;;;;;;;13.18;8.55;;;24.20;35.70;;;;;;1847561;78;21111;-46
2021/11/12 12:01:50;;;;;;;14.38;6.75;;;24.20;35.80;;;;;;1847282;78;21079;-45
2021/11/12 12:04:20;;;;;;;8.50;6.37;;;24.20;35.80;;;;;;1847389;78;21520;-47
2021/11/12 12:07:12;;;;;;;8.40;6.65;;;24.20;35.80;;;;;;1847632;78;21103;-45
2021/11/12 12:10:02;;;;;;;6.70;6.00;;;24.20;36.00;;;;;;1846910;78;21112;-50
2021/11/12 12:12:36;;;;;;;9.85;7.08;;;24.20;36.00;;;;;;1847417;78;21567;-45
2021/11/12 12:15:12;;;;;;;10.90;6.90;;;24.20;36.10;;;;;;1847458;78;21161;-48
2021/11/12 12:17:40;;;;;;;10.10;6.28;;;24.20;36.00;;;;;;1846979;78;21627;-48
2021/11/12 12:20:18;;;;;;;9.98;6.37;;;24.20;35.90;;;;;;1847314;78;21190;-44
2021/11/12 12:40:38;;;;;;;11.20;6.67;;;24.00;36.10;;;;;;1847239;77;21552;-43
2021/11/12 13:22:43;;;;;;;11.40;6.47;;;24.00;36.10;;;;;;1847430;78;21167;-38
2021/11/12 13:25:11;;;;;;;9.40;6.75;;;24.10;36.20;;;;;;1847222;78;21534;-38
2021/11/12 13:27:39;;;;;;;11.00;6.35;;;24.10;36.10;;;;;;1847482;76;21100;-38
2021/11/12 13:30:07;;;;;;;14.38;6.90;;;24.10;36.20;;;;;;1847468;78;21603;-38
2021/11/12 13:32:41;;;;;;;16.73;7.28;;;24.20;36.10;;;;;;1847456;78;21091;-38
2021/11/12 13:35:09;;;;;;;10.40;6.40;;;24.20;36.00;;;;;;1847524;78;21584;-38
2021/11/12 13:37:36;;;;;;;11.22;6.78;;;24.20;36.00;;;;;;1847591;78;21630;-39
2021/11/12 13:40:10;;;;;;;11.10;7.00;;;24.20;36.10;;;;;;1847076;78;21125;-38
2021/11/12 13:42:47;;;;;;;17.02;7.78;;;24.30;36.20;;;;;;1847392;78;21063;-38
2021/11/12 13:45:20;;;;;;;22.98;7.47;;;24.30;36.30;;;;;;1847063;78;21096;-38
2021/11/12 13:47:49;;;;;;;13.25;7.12;;;24.30;36.30;;;;;;1847352;77;21560;-39
2021/11/12 13:50:17;;;;;;;12.28;7.17;;;24.30;36.30;;;;;;1845750;78;21095;-39
2021/11/12 13:52:44;;;;;;;7.03;5.72;;;24.30;36.40;;;;;;1847423;78;21032;-39
2021/11/12 13:55:20;;;;;;;10.65;6.95;;;24.30;36.50;;;;;;1847477;78;21110;-39
2021/11/12 13:57:56;;;;;;;11.03;6.90;;;24.30;36.70;;;;;;1847208;78;21100;-39
2021/11/12 14:00:26;;;;;;;13.10;6.80;;;24.30;36.70;;;;;;1846677;78;21507;-39
2021/11/12 14:03:07;;;;;;;18.02;7.35;;;24.30;36.80;;;;;;1847084;78;21101;-39
2021/11/12 14:05:36;;;;;;;31.20;8.70;;;24.30;36.80;;;;;;1847317;78;21052;-39
2021/11/12 14:08:10;;;;;;;12.75;7.28;;;24.30;36.90;;;;;;1847521;78;21481;-38
2021/11/12 14:10:46;;;;;;;21.33;7.15;;;24.30;36.80;;;;;;1846473;78;21052;-39
2021/11/12 14:13:16;;;;;;;18.15;7.33;;;24.30;36.80;;;;;;1846570;76;21091;-38
2021/11/12 14:16:05;;;;;;;30.17;9.55;;;24.30;36.80;;;;;;1847349;78;21148;-38
2021/11/12 14:18:35;;;;;;;18.87;8.50;;;24.30;36.90;;;;;;1845869;78;21096;-39
2021/11/12 14:29:18;;;;;;;9.73;7.17;;;24.20;37.30;;;;;;1823167;78;21142;-38
2021/11/12 14:37:00;;;;;;;15.70;7.37;;;24.20;37.30;;;;;;1847574;78;21205;-38
2021/11/12 14:42:25;;;;;;;8.75;7.37;;;24.20;37.40;;;;;;1847454;78;21100;-38
2021/11/12 14:44:48;;;;;;;8.98;7.12;;;24.20;37.40;;;;;;1843604;78;21139;-39
2021/11/12 14:47:24;;;;;;;8.30;7.33;;;24.20;37.40;;;;;;1847392;78;21108;-39
2021/11/12 14:50:03;;;;;;;9.80;8.55;;;24.20;37.90;;;;;;1820522;78;21157;-38
2021/11/12 14:52:24;;;;;;;9.73;8.43;;;24.20;37.60;;;;;;1844859;78;21190;-38
2021/11/12 14:54:53;;;;;;;10.78;9.28;;;24.20;37.70;;;;;;1846862;78;21162;-39
2021/11/12 14:57:30;;;;;;;9.83;8.40;;;24.20;37.90;;;;;;1845066;78;21661;-39
2021/11/12 15:00:04;;;;;;;12.23;8.33;;;24.20;38.40;;;;;;1846806;78;21155;-38
2021/11/12 15:02:29;;;;;;;10.25;7.60;;;24.20;37.70;;;;;;1846657;78;21112;-39
2021/11/12 15:04:57;;;;;;;9.45;8.48;;;24.20;37.50;;;;;;1847451;78;21049;-39
2021/11/12 15:10:16;;;;;;;10.65;8.43;;;24.30;37.20;;;;;;1847409;77;21593;-39
2021/11/12 15:12:46;;;;;;;7.87;6.85;;;24.20;37.30;;;;;;1846898;78;21115;-39
2021/11/12 15:15:10;;;;;;;8.08;7.28;;;24.20;37.30;;;;;;1846518;78;21201;-38
2021/11/12 15:17:38;;;;;;;9.58;7.70;;;24.20;37.30;;;;;;1847570;78;21560;-38
2021/11/12 15:20:06;;;;;;;9.10;7.12;;;24.20;37.20;;;;;;1847483;78;21576;-38
2021/11/12 15:25:22;;;;;;;8.58;7.67;;;24.30;37.40;;;;;;1847483;77;21104;-38
2021/11/12 15:30:40;;;;;;;9.48;7.72;;;24.20;37.50;;;;;;1847589;77;21148;-38
2021/11/12 15:33:08;;;;;;;9.48;7.58;;;24.20;37.50;;;;;;1845632;78;21583;-38
2021/11/12 15:35:35;;;;;;;9.60;8.15;;;24.20;37.50;;;;;;1847287;78;21106;-39
2021/11/12 15:40:41;;;;;;;9.50;8.50;;;24.20;37.50;;;;;;1847458;78;21143;-39
2021/11/12 15:43:28;;;;;;;8.88;8.00;;;24.20;37.60;;;;;;1847036;78;21104;-39
2021/11/12 15:45:56;;;;;;;8.85;7.97;;;24.20;37.60;;;;;;1845920;78;21100;-39
2021/11/12 15:48:23;;;;;;;8.78;7.87;;;24.20;37.60;;;;;;1846587;77;21175;-39
2021/11/12 15:53:33;;;;;;;8.38;7.58;;;24.20;37.60;;;;;;1847356;78;21173;-38
2021/11/12 16:07:03;;;;;;;8.38;7.53;;;24.10;37.10;;;;;;1785547;80;21142;-38
2021/11/12 16:17:38;;;;;;;8.15;7.35;;;24.00;37.30;;;;;;1785428;80;21108;-38
2021/11/12 16:20:14;;;;;;;8.93;8.03;;;24.10;37.70;;;;;;1785495;80;21098;-38
2021/11/12 16:25:10;;;;;;;8.75;7.85;;;24.00;37.30;;;;;;1785498;80;21165;-38
2021/11/12 16:27:34;;;;;;;7.97;7.15;;;24.00;37.20;;;;;;1785472;79;21200;-38
2021/11/12 16:30:05;;;;;;;8.20;7.37;;;24.10;37.30;;;;;;1785458;80;21110;-38
2021/11/12 16:32:38;;;;;;;8.23;7.42;;;24.00;37.10;;;;;;1785392;80;21111;-38
2021/11/12 16:35:01;;;;;;;7.90;7.10;;;24.10;37.20;;;;;;1785433;80;21114;-38
2021/11/12 16:37:29;;;;;;;8.15;6.75;;;24.10;37.20;;;;;;1785542;80;21084;-38
2021/11/12 16:40:00;;;;;;;8.53;7.72;;;24.10;37.20;;;;;;1818176;78;21137;-38
2021/11/12 16:45:52;;;;;;;7.95;7.15;;;24.10;37.20;;;;;;1847410;78;21104;-38
2021/11/12 16:53:03;;;;;;;7.75;6.95;;;24.10;37.30;;;;;;1850068;77;21501;-38
2021/11/12 16:58:06;;;;;;;9.38;7.47;;;24.00;37.30;;;;;;1850091;77;21075;-38
2021/11/12 17:08:45;;;;;;;7.92;7.05;;;24.10;37.40;;;;;;1850106;77;21496;-39
2021/11/12 17:13:49;;;;;;;7.42;6.72;;;24.00;37.30;;;;;;1850032;77;21040;-39
2021/11/12 17:44:48;;;;;;;7.40;6.70;;;24.00;37.40;;;;;;1850231;77;21556;-38
2021/11/12 17:46:18;;;;;;;6.92;6.22;;;23.90;37.60;;;;;;1850124;77;21607;-39
2021/11/12 17:48:39;;;;;;;7.10;6.40;;;23.90;37.60;;;;;;1846480;77;21185;-39
2021/11/12 18:04:40;;;;;;;6.65;5.95;;;23.90;37.60;;;;;;1815872;78;21071;-39
2021/11/12 18:23:29;;;;;;;6.17;5.58;;;24.00;37.50;;;;;;1847727;78;21504;-39
2021/11/12 21:44:42;;;;;;;4.72;4.25;;;23.80;39.30;;;;;;1850064;77;21091;-38
2021/11/12 21:46:57;;;;;;;5.05;4.55;;;23.80;39.20;;;;;;1845794;77;21156;-38
2021/11/12 21:49:25;;;;;;;5.15;4.55;;;23.80;39.30;;;;;;1850070;77;21043;-38
2021/11/12 21:51:55;;;;;;;5.17;4.10;;;23.80;39.20;;;;;;1848514;77;21192;-38
2021/11/12 21:54:22;;;;;;;4.85;4.10;;;23.90;39.20;;;;;;1847242;78;21162;-44
2021/11/12 21:56:49;;;;;;;5.05;4.55;;;23.90;39.10;;;;;;1847463;78;21067;-38
2021/11/12 21:59:17;;;;;;;5.62;4.75;;;23.90;39.10;;;;;;1847427;78;21048;-38
2021/11/12 22:01:45;;;;;;;6.87;4.10;;;23.90;39.00;;;;;;1847512;78;21532;-38
2021/11/12 22:04:12;;;;;;;8.10;4.95;;;24.00;39.00;;;;;;1847409;78;21123;-38
2021/11/12 22:06:40;;;;;;;7.25;5.17;;;24.00;39.00;;;;;;1847521;77;21540;-38
2021/11/12 22:09:08;;;;;;;7.47;4.83;;;24.00;39.00;;;;;;1847509;78;21108;-38
2021/11/12 22:11:36;;;;;;;9.60;4.58;;;24.00;39.00;;;;;;1847421;78;21071;-38
2021/11/12 22:14:04;;;;;;;6.25;4.40;;;24.00;38.90;;;;;;1847483;78;21580;-38
2021/11/12 22:16:32;;;;;;;7.53;4.58;;;24.00;39.00;;;;;;1847468;78;21067;-39
2021/11/12 22:18:59;;;;;;;9.00;5.05;;;24.00;38.90;;;;;;1847483;78;21493;-38
2021/11/12 22:21:28;;;;;;;10.53;5.05;;;24.00;38.90;;;;;;1847497;78;21507;-39